Time;durP1;ratioP1;P1;durP2;ratioP2;P2;SDS_P1;SDS_P2;PMS_P1;PMS_P2;Temp;Humidity;BMP_temperature;BMP_pressure;BME280_temperature;BME280_humidity;BME280_pressure;Samples;Min_cycle;Max_cycle;Signal;HPM_P1;HPM_P2
2022/01/16 00:01:01;;;;;;;7.95;4.00;;;26.70;91.80;;;;;;5073051;28;20040;-61
2022/01/16 00:06:17;;;;;;;5.90;3.40;;;26.80;91.80;;;;;;5072787;28;20536;-61
2022/01/16 00:08:45;;;;;;;7.75;3.90;;;26.90;91.60;;;;;;5072539;28;20471;-62
2022/01/16 00:11:13;;;;;;;7.07;3.60;;;26.90;91.60;;;;;;5071708;28;20103;-56
2022/01/16 00:13:41;;;;;;;5.72;3.30;;;27.00;91.40;;;;;;5072809;28;20032;-57
2022/01/16 00:16:13;;;;;;;6.80;3.90;;;27.00;91.50;;;;;;5070351;28;20389;-55
2022/01/16 00:18:49;;;;;;;;;;;27.10;91.50;;;;;;5073112;28;20111;-59
2022/01/16 00:21:18;;;;;;;8.63;3.60;;;27.00;91.50;;;;;;5072562;28;19998;-58
2022/01/16 00:23:46;;;;;;;4.55;3.20;;;27.10;91.50;;;;;;5071255;28;20029;-48
2022/01/16 00:26:14;;;;;;;6.25;3.58;;;27.10;91.20;;;;;;5072295;28;20058;-56
2022/01/16 00:28:41;;;;;;;8.73;3.58;;;27.20;91.30;;;;;;5072186;28;20035;-57
2022/01/16 00:31:09;;;;;;;8.25;4.25;;;27.20;91.20;;;;;;5072207;28;20044;-63
2022/01/16 00:33:42;;;;;;;8.48;4.47;;;27.20;91.10;;;;;;5072766;28;20032;-62
2022/01/16 00:36:11;;;;;;;7.95;4.43;;;27.30;91.10;;;;;;5072277;28;20020;-61
2022/01/16 00:38:45;;;;;;;6.53;3.42;;;27.30;91.10;;;;;;5072426;28;20035;-62
2022/01/16 00:41:14;;;;;;;10.02;3.55;;;27.30;91.00;;;;;;5070712;28;20513;-62
2022/01/16 00:43:42;;;;;;;8.07;3.63;;;27.30;91.00;;;;;;5071826;28;20125;-57
2022/01/16 00:46:09;;;;;;;6.40;3.38;;;27.30;91.10;;;;;;5071267;28;20016;-62
2022/01/16 00:48:37;;;;;;;7.28;3.92;;;27.30;91.50;;;;;;5072149;28;20486;-55
2022/01/16 00:51:04;;;;;;;7.05;4.20;;;27.30;91.20;;;;;;5071892;28;20032;-60
2022/01/16 00:53:32;;;;;;;5.65;4.00;;;27.40;91.20;;;;;;5070863;28;20112;-57
2022/01/16 00:55:59;;;;;;;6.30;4.20;;;27.40;91.10;;;;;;5071249;28;20064;-62
2022/01/16 00:58:27;;;;;;;10.27;3.80;;;27.40;91.10;;;;;;5070927;28;20086;-60
2022/01/16 01:00:54;;;;;;;8.07;4.05;;;27.40;91.10;;;;;;5071563;28;20044;-58
2022/01/16 01:03:22;;;;;;;6.35;3.83;;;27.40;91.10;;;;;;5072124;28;20033;-58
2022/01/16 01:05:49;;;;;;;5.60;4.13;;;27.40;91.10;;;;;;5072059;28;20017;-59
2022/01/16 01:08:17;;;;;;;5.30;3.47;;;27.50;90.90;;;;;;5072074;28;20029;-55
2022/01/16 01:10:48;;;;;;;5.38;3.42;;;27.50;90.90;;;;;;5072084;28;20033;-58
2022/01/16 01:13:34;;;;;;;9.05;3.85;;;27.50;91.00;;;;;;5072653;28;20032;-58
2022/01/16 01:16:04;;;;;;;9.63;5.13;;;27.50;91.00;;;;;;5071516;28;20025;-59
2022/01/16 01:18:36;;;;;;;7.45;4.03;;;27.50;90.90;;;;;;5072404;28;20020;-60
2022/01/16 01:21:13;;;;;;;8.95;3.90;;;27.50;91.00;;;;;;5072333;28;20035;-60
2022/01/16 01:23:40;;;;;;;7.63;4.78;;;27.60;90.80;;;;;;5071666;28;20040;-57
2022/01/16 01:26:07;;;;;;;8.52;4.47;;;27.60;90.80;;;;;;5070688;28;20472;-60
2022/01/16 01:28:35;;;;;;;6.85;3.95;;;27.60;90.90;;;;;;5071470;28;20054;-60
2022/01/16 01:31:02;;;;;;;8.65;4.60;;;27.70;90.80;;;;;;5071503;28;20039;-58
2022/01/16 01:33:29;;;;;;;7.22;3.90;;;27.60;90.80;;;;;;5070087;28;20409;-60
2022/01/16 01:35:57;;;;;;;4.93;3.13;;;27.60;91.00;;;;;;5071171;28;20422;-61
2022/01/16 01:38:24;;;;;;;7.63;4.30;;;27.60;91.00;;;;;;5071531;28;20104;-58
2022/01/16 01:40:51;;;;;;;6.10;3.97;;;27.60;90.90;;;;;;5071493;28;20028;-64
2022/01/16 01:51:44;;;;;;;6.30;3.70;;;27.70;91.00;;;;;;5071642;28;20066;-56
2022/01/16 01:54:12;;;;;;;9.38;4.35;;;27.70;91.00;;;;;;5070536;28;20776;-61
2022/01/16 01:56:40;;;;;;;6.03;3.95;;;27.70;91.00;;;;;;5070877;28;20036;-62
2022/01/16 01:59:10;;;;;;;9.25;4.40;;;27.70;91.00;;;;;;5071223;28;20423;-58
2022/01/16 02:01:37;;;;;;;6.38;3.75;;;27.70;90.90;;;;;;5071269;28;20135;-62
2022/01/16 02:04:05;;;;;;;6.20;4.00;;;27.70;90.90;;;;;;5071289;28;20031;-59
2022/01/16 02:06:33;;;;;;;7.20;4.30;;;27.70;90.90;;;;;;5071021;28;20111;-61
2022/01/16 02:09:06;;;;;;;9.18;4.07;;;27.80;90.90;;;;;;5069862;28;20021;-62
2022/01/16 02:11:35;;;;;;;6.25;4.15;;;27.70;91.00;;;;;;5070174;28;20056;-54
2022/01/16 02:14:14;;;;;;;7.50;4.45;;;27.80;91.00;;;;;;5070749;28;20036;-62
2022/01/16 02:28:24;;;;;;;8.95;3.95;;;28.00;90.80;;;;;;5054995;28;20551;-58
2022/01/16 02:36:15;;;;;;;10.57;4.82;;;28.20;90.40;;;;;;5070498;28;20016;-53
2022/01/16 02:38:45;;;;;;;9.93;4.07;;;28.20;90.30;;;;;;5072795;28;20024;-60
2022/01/16 02:41:13;;;;;;;10.45;4.22;;;28.30;90.30;;;;;;5074008;28;20051;-57
2022/01/16 02:43:46;;;;;;;9.88;4.85;;;28.30;90.10;;;;;;5074201;28;20081;-57
2022/01/16 02:48:48;;;;;;;12.98;4.78;;;28.40;90.00;;;;;;5074834;28;20471;-52
2022/01/16 02:51:21;;;;;;;13.50;4.00;;;28.30;89.60;;;;;;5074530;28;20055;-55
2022/01/16 02:53:50;;;;;;;17.17;5.07;;;28.40;89.80;;;;;;5073771;28;20309;-57
2022/01/16 02:56:18;;;;;;;14.85;5.25;;;28.40;90.00;;;;;;5074230;28;20040;-52
2022/01/16 02:58:47;;;;;;;17.45;4.30;;;28.50;89.20;;;;;;5074092;28;20025;-59
2022/01/16 03:01:15;;;;;;;15.50;5.00;;;28.50;88.80;;;;;;5072715;28;20024;-54
2022/01/16 03:03:43;;;;;;;9.45;3.67;;;28.60;89.00;;;;;;5074026;28;20024;-57
2022/01/16 03:06:10;;;;;;;11.70;4.10;;;28.60;89.60;;;;;;5073852;28;20104;-54
2022/01/16 03:08:38;;;;;;;13.10;4.28;;;28.60;90.10;;;;;;5073742;28;20123;-53
2022/01/16 03:13:49;;;;;;;14.32;4.93;;;28.50;90.10;;;;;;5073751;28;20032;-58
2022/01/16 03:16:18;;;;;;;14.95;4.75;;;28.60;90.00;;;;;;5073150;28;20086;-56
2022/01/16 03:24:19;;;;;;;15.55;5.00;;;28.70;90.60;;;;;;5074264;28;20134;-51
2022/01/16 03:26:46;;;;;;;14.98;4.75;;;28.60;89.70;;;;;;5073623;28;20086;-56
2022/01/16 03:29:14;;;;;;;16.13;4.72;;;28.60;90.40;;;;;;5073044;28;20055;-59
2022/01/16 03:31:41;;;;;;;18.08;4.30;;;28.60;90.40;;;;;;5073541;28;20058;-51
2022/01/16 03:34:09;;;;;;;14.07;3.97;;;28.60;90.60;;;;;;5073544;28;20383;-57
2022/01/16 03:36:36;;;;;;;16.63;4.57;;;28.60;90.50;;;;;;5073451;28;20021;-54
2022/01/16 03:39:04;;;;;;;15.32;4.07;;;28.70;90.40;;;;;;5073398;28;20104;-55
2022/01/16 03:41:34;;;;;;;13.38;4.45;;;28.70;90.20;;;;;;5073349;28;20037;-58
2022/01/16 03:44:02;;;;;;;13.82;4.90;;;28.70;89.70;;;;;;5073008;28;20028;-53
2022/01/16 03:46:35;;;;;;;10.02;3.95;;;28.70;90.10;;;;;;5073560;28;20104;-60
2022/01/16 03:49:08;;;;;;;15.18;4.80;;;28.60;89.50;;;;;;5073067;28;20035;-58
2022/01/16 03:51:37;;;;;;;14.20;4.35;;;28.70;90.00;;;;;;5073119;28;20040;-62
2022/01/16 03:54:07;;;;;;;13.82;4.65;;;28.30;86.90;;;;;;5072918;28;20037;-61
2022/01/16 03:56:34;;;;;;;13.73;4.13;;;28.30;90.70;;;;;;5073797;28;20090;-60
2022/01/16 03:59:02;;;;;;;14.30;4.25;;;28.10;90.90;;;;;;5072962;28;20431;-61
2022/01/16 04:01:30;;;;;;;14.98;4.68;;;28.30;90.10;;;;;;5073223;28;20032;-58
2022/01/16 04:03:57;;;;;;;12.57;3.70;;;28.30;90.30;;;;;;5073206;28;20104;-60
2022/01/16 04:06:28;;;;;;;12.75;3.72;;;28.20;89.80;;;;;;5073456;28;20044;-58
2022/01/16 04:08:56;;;;;;;13.02;3.53;;;28.20;90.80;;;;;;5073372;28;20116;-59
2022/01/16 04:11:31;;;;;;;18.63;4.97;;;28.10;90.40;;;;;;5073174;28;20051;-61
2022/01/16 04:14:14;;;;;;;16.30;4.63;;;28.20;91.20;;;;;;5072953;28;20104;-63
2022/01/16 04:16:42;;;;;;;15.10;4.28;;;28.30;88.40;;;;;;5073650;28;20103;-65
2022/01/16 04:19:09;;;;;;;14.57;4.13;;;28.30;87.70;;;;;;5073597;28;20035;-61
2022/01/16 04:21:36;;;;;;;22.73;5.85;;;28.00;91.40;;;;;;5073216;28;20487;-64
2022/01/16 04:24:04;;;;;;;15.50;4.93;;;28.00;90.10;;;;;;5072883;28;20174;-63
2022/01/16 04:26:31;;;;;;;21.70;4.88;;;28.10;90.30;;;;;;5072610;28;20035;-61
2022/01/16 04:28:59;;;;;;;18.90;4.03;;;28.10;91.60;;;;;;5072581;28;20037;-60
2022/01/16 04:31:26;;;;;;;11.77;4.07;;;28.10;91.50;;;;;;5072709;28;20369;-59
2022/01/16 04:33:53;;;;;;;13.30;3.70;;;28.30;90.60;;;;;;5072785;28;20017;-60
2022/01/16 04:36:21;;;;;;;19.67;4.28;;;28.40;90.60;;;;;;5072621;28;20103;-59
2022/01/16 04:38:51;;;;;;;14.77;5.13;;;28.50;90.30;;;;;;5072877;28;20400;-58
2022/01/16 04:44:05;;;;;;;13.35;4.40;;;28.50;90.40;;;;;;5072378;28;20108;-61
2022/01/16 04:46:34;;;;;;;13.55;4.30;;;28.50;90.80;;;;;;5072244;28;20050;-62
2022/01/16 04:49:03;;;;;;;14.10;3.90;;;28.50;90.30;;;;;;5072564;28;20493;-61
2022/01/16 04:51:37;;;;;;;15.32;4.38;;;28.50;90.50;;;;;;5072562;28;20100;-62
2022/01/16 04:54:04;;;;;;;17.02;4.65;;;28.50;90.20;;;;;;5072077;28;20037;-59
2022/01/16 04:56:32;;;;;;;12.95;4.78;;;28.50;90.30;;;;;;5072235;28;20105;-59
2022/01/16 04:58:59;;;;;;;16.70;4.32;;;28.50;90.00;;;;;;5071923;28;20024;-60
2022/01/16 05:01:27;;;;;;;17.23;5.53;;;28.50;90.10;;;;;;5071362;28;20078;-59
2022/01/16 05:03:54;;;;;;;10.57;4.82;;;28.50;90.10;;;;;;5071889;28;20444;-57
2022/01/16 05:06:22;;;;;;;17.42;5.10;;;28.50;89.80;;;;;;5072320;28;20029;-64
2022/01/16 05:08:49;;;;;;;21.08;4.28;;;28.60;90.10;;;;;;5072309;28;20075;-59
2022/01/16 05:11:22;;;;;;;19.95;5.03;;;28.60;90.40;;;;;;5072012;28;20024;-57
2022/01/16 05:16:41;;;;;;;12.63;4.25;;;28.60;90.40;;;;;;5072178;28;20017;-60
2022/01/16 05:19:15;;;;;;;16.33;4.53;;;28.60;90.80;;;;;;5072113;28;20029;-52
2022/01/16 05:21:43;;;;;;;10.57;4.55;;;28.60;90.80;;;;;;5072056;28;20442;-54
2022/01/16 05:24:12;;;;;;;11.18;4.30;;;28.60;91.10;;;;;;5071720;28;20048;-63
2022/01/16 05:26:41;;;;;;;8.88;2.85;;;28.60;91.50;;;;;;5070813;28;20034;-63
2022/01/16 05:29:10;;;;;;;12.85;4.18;;;28.60;91.10;;;;;;5070321;28;20487;-54
2022/01/16 05:31:44;;;;;;;12.07;3.80;;;28.50;91.20;;;;;;5071776;28;20115;-60
2022/01/16 05:34:13;;;;;;;13.30;4.13;;;28.40;91.30;;;;;;5071785;28;20029;-65
2022/01/16 05:36:41;;;;;;;14.35;4.03;;;28.40;91.40;;;;;;5070691;28;20087;-61
2022/01/16 05:39:08;;;;;;;12.30;3.60;;;28.40;91.20;;;;;;5071374;28;20044;-60
2022/01/16 05:41:36;;;;;;;11.82;3.75;;;28.40;91.30;;;;;;5071788;28;20182;-64
2022/01/16 05:44:04;;;;;;;11.95;3.97;;;28.30;91.40;;;;;;5071807;28;20099;-62
2022/01/16 05:46:31;;;;;;;12.13;4.40;;;28.30;91.30;;;;;;5070468;28;20469;-64
2022/01/16 05:48:58;;;;;;;14.85;4.93;;;28.30;91.40;;;;;;5072174;28;20025;-62
2022/01/16 05:51:26;;;;;;;11.85;3.95;;;28.30;91.40;;;;;;5072245;28;20028;-64
2022/01/16 05:53:56;;;;;;;13.40;4.22;;;28.30;91.40;;;;;;5071436;28;20043;-56
2022/01/16 05:56:24;;;;;;;10.27;3.90;;;28.20;91.50;;;;;;5072153;28;20111;-62
2022/01/16 05:58:51;;;;;;;12.82;3.88;;;28.20;91.30;;;;;;5072978;28;20021;-62
2022/01/16 06:01:19;;;;;;;10.10;3.05;;;28.20;91.40;;;;;;5072210;28;20445;-60
2022/01/16 06:03:46;;;;;;;9.63;3.80;;;28.10;91.50;;;;;;5070885;28;20016;-61
2022/01/16 06:06:13;;;;;;;8.52;3.25;;;28.10;91.70;;;;;;5071842;28;20052;-66
2022/01/16 06:08:41;;;;;;;9.05;3.03;;;28.00;91.60;;;;;;5071382;28;20025;-60
2022/01/16 06:11:08;;;;;;;6.13;2.50;;;28.00;91.80;;;;;;5071660;28;20498;-57
2022/01/16 06:13:36;;;;;;;13.95;4.20;;;28.00;91.90;;;;;;5072765;28;20071;-60
2022/01/16 06:16:03;;;;;;;7.07;3.17;;;27.90;91.70;;;;;;5074997;28;20074;-57
2022/01/16 06:18:31;;;;;;;9.68;3.45;;;27.90;92.00;;;;;;5075286;28;20100;-60
2022/01/16 06:20:58;;;;;;;9.93;4.28;;;27.80;92.00;;;;;;5075197;28;20112;-61
2022/01/16 06:23:26;;;;;;;8.25;3.38;;;27.90;92.30;;;;;;5075397;28;20376;-60
2022/01/16 06:25:56;;;;;;;10.23;3.67;;;27.80;92.30;;;;;;5074762;28;20024;-52
2022/01/16 06:28:24;;;;;;;9.98;3.63;;;27.80;92.50;;;;;;5075153;28;20024;-64
2022/01/16 06:30:52;;;;;;;9.48;3.47;;;27.70;92.50;;;;;;5075514;28;20020;-58
2022/01/16 06:33:19;;;;;;;9.13;3.45;;;27.70;92.40;;;;;;5075062;28;20028;-54
2022/01/16 06:35:47;;;;;;;8.82;3.72;;;27.70;92.40;;;;;;5074860;28;20063;-62
2022/01/16 06:38:14;;;;;;;8.77;3.47;;;27.70;92.40;;;;;;5074790;28;20113;-59
2022/01/16 06:40:42;;;;;;;11.40;3.70;;;27.70;92.40;;;;;;5074942;28;20447;-56
2022/01/16 06:43:09;;;;;;;7.95;3.78;;;27.60;92.30;;;;;;5074609;28;20171;-52
2022/01/16 06:45:37;;;;;;;10.77;3.75;;;27.60;92.50;;;;;;5074917;28;20043;-64
2022/01/16 06:48:04;;;;;;;8.27;3.55;;;27.60;92.50;;;;;;5074593;28;20383;-60
2022/01/16 06:50:32;;;;;;;8.10;3.25;;;27.60;92.60;;;;;;5074903;28;20028;-61
2022/01/16 06:52:59;;;;;;;7.82;3.38;;;27.50;92.70;;;;;;5074705;28;20025;-61
2022/01/16 06:55:26;;;;;;;10.65;3.30;;;27.50;92.70;;;;;;5073192;28;20052;-61
2022/01/16 06:57:54;;;;;;;11.10;3.70;;;27.50;92.80;;;;;;5072995;28;20029;-59
2022/01/16 07:00:21;;;;;;;7.55;3.13;;;27.40;92.90;;;;;;5074590;28;20028;-62
2022/01/16 07:02:48;;;;;;;8.95;3.47;;;27.40;92.90;;;;;;5074150;28;20452;-62
2022/01/16 07:05:16;;;;;;;9.52;4.13;;;27.40;92.70;;;;;;5074779;28;20025;-56
2022/01/16 07:07:44;;;;;;;8.43;3.70;;;27.30;92.90;;;;;;5075227;28;20028;-60
2022/01/16 07:10:11;;;;;;;8.30;3.25;;;27.30;92.90;;;;;;5074335;28;20032;-60
2022/01/16 07:12:38;;;;;;;11.13;3.25;;;27.30;93.10;;;;;;5075279;28;20056;-60
2022/01/16 07:15:06;;;;;;;7.15;2.92;;;27.30;93.10;;;;;;5075777;28;20017;-64
2022/01/16 07:17:36;;;;;;;10.02;3.75;;;27.30;93.10;;;;;;5074159;28;20032;-60
2022/01/16 07:20:04;;;;;;;9.68;3.17;;;27.20;93.10;;;;;;5074303;28;20489;-61
2022/01/16 07:22:31;;;;;;;10.82;3.67;;;27.20;93.00;;;;;;5074690;28;20483;-65
2022/01/16 07:24:59;;;;;;;8.05;3.13;;;27.20;93.20;;;;;;5073735;28;20027;-62
2022/01/16 07:27:26;;;;;;;7.90;3.53;;;27.20;93.30;;;;;;5073094;28;20031;-60
2022/01/16 07:29:54;;;;;;;8.90;3.10;;;27.20;93.40;;;;;;5073792;28;20036;-64
2022/01/16 07:32:21;;;;;;;10.85;3.90;;;27.10;93.30;;;;;;5074297;28;20100;-61
2022/01/16 07:34:48;;;;;;;7.63;3.28;;;27.10;93.30;;;;;;5074377;28;20385;-63
2022/01/16 07:37:16;;;;;;;7.03;3.22;;;27.10;93.30;;;;;;5072654;28;20035;-65
2022/01/16 07:39:44;;;;;;;7.03;3.53;;;27.10;93.30;;;;;;5074310;28;20044;-62
2022/01/16 07:42:11;;;;;;;9.48;3.45;;;27.10;93.30;;;;;;5072118;28;20028;-61
2022/01/16 07:44:38;;;;;;;8.20;3.53;;;27.10;93.40;;;;;;5073941;28;20147;-58
2022/01/16 07:47:07;;;;;;;7.03;3.03;;;27.10;93.40;;;;;;5073864;28;20039;-64
2022/01/16 07:49:34;;;;;;;6.43;2.70;;;27.10;93.30;;;;;;5074320;28;20040;-64
2022/01/16 07:52:01;;;;;;;7.00;3.25;;;27.10;93.40;;;;;;5073631;28;20098;-66
2022/01/16 07:54:29;;;;;;;7.63;3.28;;;27.10;93.40;;;;;;5073490;28;20498;-63
2022/01/16 07:56:56;;;;;;;7.03;2.85;;;27.00;93.40;;;;;;5074014;28;20039;-60
2022/01/16 07:59:24;;;;;;;10.40;3.40;;;27.00;93.50;;;;;;5072109;28;20082;-62
2022/01/16 08:01:51;;;;;;;9.07;3.20;;;27.00;93.50;;;;;;5073477;28;20039;-62
2022/01/16 08:04:18;;;;;;;6.28;3.08;;;27.00;93.50;;;;;;5073395;28;20021;-59
2022/01/16 08:06:46;;;;;;;7.03;3.00;;;27.00;93.40;;;;;;5073135;28;20047;-57
2022/01/16 08:09:13;;;;;;;5.40;3.17;;;27.00;93.50;;;;;;5073453;28;20024;-62
2022/01/16 08:11:44;;;;;;;7.13;3.03;;;27.00;93.50;;;;;;5073110;28;20475;-62
2022/01/16 08:14:11;;;;;;;8.82;3.15;;;27.00;93.50;;;;;;5072741;28;20453;-62
2022/01/16 08:16:39;;;;;;;7.53;2.80;;;26.90;93.40;;;;;;5073205;28;20016;-63
2022/01/16 08:19:06;;;;;;;6.90;3.20;;;26.90;93.40;;;;;;5073093;28;20074;-62
2022/01/16 08:21:34;;;;;;;7.85;3.05;;;26.90;93.50;;;;;;5072665;28;20100;-61
2022/01/16 08:24:03;;;;;;;7.50;3.10;;;26.90;93.50;;;;;;5072671;28;20086;-59
2022/01/16 08:26:33;;;;;;;6.28;2.50;;;26.90;93.50;;;;;;5072971;28;20478;-63
2022/01/16 08:29:00;;;;;;;5.10;2.65;;;26.90;93.50;;;;;;5072560;28;20427;-59
2022/01/16 08:31:32;;;;;;;3.78;2.70;;;26.80;93.50;;;;;;5072668;28;20016;-62
2022/01/16 08:33:59;;;;;;;;;;;26.80;93.60;;;;;;5073504;28;20032;-61
2022/01/16 08:36:26;;;;;;;4.60;2.42;;;26.80;93.80;;;;;;5072567;28;19911;-61
2022/01/16 08:38:57;;;;;;;6.22;2.78;;;26.80;93.50;;;;;;5072704;28;20029;-60
2022/01/16 08:41:24;;;;;;;6.97;2.93;;;26.80;93.60;;;;;;5072366;28;20028;-60
2022/01/16 08:43:52;;;;;;;4.88;2.28;;;26.80;93.50;;;;;;5072233;28;20332;-59
2022/01/16 08:46:21;;;;;;;5.97;2.80;;;26.70;93.60;;;;;;5072904;28;20047;-63
2022/01/16 08:48:49;;;;;;;5.72;2.45;;;26.70;93.60;;;;;;5072595;28;20074;-64
2022/01/16 08:51:16;;;;;;;6.75;2.55;;;26.70;93.70;;;;;;5072518;28;20024;-61
2022/01/16 08:53:45;;;;;;;5.75;2.75;;;26.70;93.70;;;;;;5072479;28;20107;-62
2022/01/16 08:56:14;;;;;;;10.18;3.13;;;26.70;93.70;;;;;;5072296;28;20059;-60
2022/01/16 08:58:41;;;;;;;5.90;2.97;;;26.60;93.70;;;;;;5071931;28;20108;-55
2022/01/16 09:01:09;;;;;;;8.80;3.58;;;26.60;93.70;;;;;;5072118;28;20048;-61
2022/01/16 09:03:38;;;;;;;7.35;3.15;;;26.60;93.80;;;;;;5072240;28;20028;-63
2022/01/16 09:06:10;;;;;;;7.15;3.45;;;26.60;93.80;;;;;;5054443;28;20020;-60
2022/01/16 09:08:37;;;;;;;7.20;2.85;;;26.60;93.90;;;;;;5072153;28;20047;-57
2022/01/16 09:11:05;;;;;;;7.20;3.50;;;26.50;93.90;;;;;;5071812;28;20107;-62
2022/01/16 09:13:32;;;;;;;7.10;3.05;;;26.50;93.90;;;;;;5071854;28;20044;-63
2022/01/16 09:16:00;;;;;;;6.68;2.58;;;26.50;93.90;;;;;;5071869;28;20017;-60
2022/01/16 09:18:28;;;;;;;4.93;2.75;;;26.50;93.90;;;;;;5071973;28;20031;-61
2022/01/16 09:20:56;;;;;;;6.72;2.78;;;26.40;93.90;;;;;;5071852;28;20029;-60
2022/01/16 09:23:24;;;;;;;5.78;2.83;;;26.40;93.90;;;;;;5072174;28;20048;-64
2022/01/16 09:25:51;;;;;;;4.80;2.30;;;26.50;94.00;;;;;;5070706;28;20042;-61
2022/01/16 09:28:19;;;;;;;6.88;2.88;;;26.40;93.90;;;;;;5072262;28;20024;-57
2022/01/16 09:30:46;;;;;;;5.22;2.75;;;26.40;93.90;;;;;;5071916;28;20035;-57
2022/01/16 09:33:15;;;;;;;6.13;2.78;;;26.40;94.00;;;;;;5072228;28;20338;-62
2022/01/16 09:35:43;;;;;;;4.20;2.63;;;26.40;94.00;;;;;;5072534;28;20024;-61
2022/01/16 09:38:10;;;;;;;6.25;2.92;;;26.30;93.90;;;;;;5070923;28;20082;-61
2022/01/16 09:40:38;;;;;;;5.63;2.67;;;26.30;94.00;;;;;;5072412;28;20033;-62
2022/01/16 09:43:05;;;;;;;6.15;2.78;;;26.30;94.00;;;;;;5072234;28;20029;-62
2022/01/16 09:45:33;;;;;;;5.38;2.90;;;26.30;94.10;;;;;;5072540;28;20502;-62
2022/01/16 09:48:02;;;;;;;4.72;2.67;;;26.30;94.20;;;;;;5073467;28;20060;-62
2022/01/16 09:50:29;;;;;;;5.07;2.90;;;26.30;94.30;;;;;;5076370;28;20052;-62
2022/01/16 09:52:57;;;;;;;7.07;2.50;;;26.20;94.30;;;;;;5076216;28;20029;-59
2022/01/16 09:55:24;;;;;;;5.70;2.60;;;26.20;94.30;;;;;;5075965;28;20120;-62
2022/01/16 09:57:54;;;;;;;5.72;2.88;;;26.20;94.40;;;;;;5075532;28;20069;-63
2022/01/16 10:00:24;;;;;;;7.45;3.00;;;26.10;94.40;;;;;;5075519;28;20025;-60
2022/01/16 10:02:53;;;;;;;5.97;2.65;;;26.20;94.40;;;;;;5075777;28;20044;-63
2022/01/16 10:05:34;;;;;;;7.25;2.92;;;26.20;94.40;;;;;;5075737;28;20031;-58
2022/01/16 10:08:05;;;;;;;5.53;2.70;;;26.10;94.50;;;;;;5075709;28;20361;-62
2022/01/16 10:10:45;;;;;;;5.88;2.83;;;26.10;94.30;;;;;;5075671;28;20052;-61
2022/01/16 10:13:56;;;;;;;7.35;2.92;;;26.10;94.40;;;;;;5075966;28;20099;-63
2022/01/16 10:16:32;;;;;;;6.75;3.15;;;26.10;94.50;;;;;;5077486;28;20052;-61
2022/01/16 10:19:01;;;;;;;6.57;3.05;;;26.10;94.50;;;;;;5076129;28;20020;-64
2022/01/16 10:21:38;;;;;;;6.00;3.08;;;26.00;94.50;;;;;;5075398;28;20430;-61
2022/01/16 10:24:26;;;;;;;6.97;3.38;;;26.00;94.40;;;;;;5075438;28;20437;-61
2022/01/16 10:27:17;;;;;;;5.30;2.58;;;26.00;94.50;;;;;;5075263;28;20025;-62
2022/01/16 10:29:57;;;;;;;7.45;3.13;;;26.00;94.50;;;;;;5075413;28;20031;-54
2022/01/16 10:32:27;;;;;;;7.22;3.25;;;26.00;94.60;;;;;;5075138;28;20436;-60
2022/01/16 10:35:22;;;;;;;6.80;2.75;;;26.00;94.60;;;;;;5075390;28;20036;-62
2022/01/16 10:37:57;;;;;;;8.55;3.15;;;25.90;94.60;;;;;;5074065;28;20033;-63
2022/01/16 10:40:44;;;;;;;6.28;2.60;;;25.90;94.60;;;;;;5057397;28;20067;-62
2022/01/16 10:43:15;;;;;;;6.55;2.75;;;25.90;94.60;;;;;;5073605;28;20036;-57
2022/01/16 10:45:44;;;;;;;6.28;2.80;;;25.90;94.60;;;;;;5075420;28;20395;-61
2022/01/16 10:48:14;;;;;;;9.60;3.58;;;25.90;94.60;;;;;;5075007;28;20036;-59
2022/01/16 10:50:45;;;;;;;8.80;3.00;;;25.90;94.70;;;;;;5075282;28;20024;-62
2022/01/16 10:53:19;;;;;;;7.93;3.40;;;25.90;94.70;;;;;;5075372;28;20128;-63
2022/01/16 10:55:51;;;;;;;8.63;3.25;;;25.90;95.00;;;;;;5074842;28;20037;-57
2022/01/16 10:58:41;;;;;;;5.53;2.63;;;25.90;94.80;;;;;;5074702;28;20082;-52
2022/01/16 11:01:14;;;;;;;5.60;2.92;;;25.90;94.80;;;;;;5075396;28;20024;-60
2022/01/16 11:03:46;;;;;;;7.25;2.90;;;25.80;94.80;;;;;;5075194;28;20033;-61
2022/01/16 11:06:18;;;;;;;7.40;3.22;;;25.80;94.80;;;;;;5074812;28;20475;-62
2022/01/16 11:08:52;;;;;;;;;;;25.80;94.80;;;;;;5075455;28;20020;-65
2022/01/16 11:11:22;;;;;;;5.88;2.40;;;25.80;94.80;;;;;;5074263;28;19952;-57
2022/01/16 11:13:51;;;;;;;7.72;2.85;;;25.80;94.80;;;;;;5074397;28;20032;-64
2022/01/16 11:16:18;;;;;;;5.15;2.65;;;25.80;94.80;;;;;;5074471;28;20027;-61
2022/01/16 11:18:51;;;;;;;5.90;2.55;;;25.80;94.80;;;;;;5074099;28;20125;-64
2022/01/16 11:21:30;;;;;;;8.70;3.33;;;25.80;94.80;;;;;;5071961;28;20033;-62
2022/01/16 11:26:44;;;;;;;5.55;2.42;;;25.80;94.80;;;;;;5074422;28;20048;-63
2022/01/16 11:29:13;;;;;;;7.45;3.13;;;25.70;94.80;;;;;;5074414;28;20025;-64
2022/01/16 11:31:43;;;;;;;5.32;2.72;;;25.70;94.80;;;;;;5074366;28;20024;-62
2022/01/16 11:34:11;;;;;;;8.98;3.15;;;25.70;94.80;;;;;;5074397;28;20352;-61
2022/01/16 11:36:40;;;;;;;7.90;2.80;;;25.70;94.80;;;;;;5073960;28;20047;-62
2022/01/16 11:39:11;;;;;;;7.65;2.70;;;25.70;94.80;;;;;;5074611;28;20028;-57
2022/01/16 11:41:59;;;;;;;5.63;3.13;;;25.70;94.70;;;;;;5074161;28;20039;-61
2022/01/16 11:44:29;;;;;;;7.97;2.92;;;25.70;94.70;;;;;;5074614;28;20051;-61
2022/01/16 11:47:06;;;;;;;7.80;3.08;;;25.70;94.80;;;;;;5075309;28;20062;-62
2022/01/16 11:49:38;;;;;;;8.05;2.88;;;25.70;94.80;;;;;;5073276;28;20101;-57
2022/01/16 11:52:11;;;;;;;6.97;2.78;;;25.70;94.80;;;;;;5074384;28;20104;-61
2022/01/16 11:54:44;;;;;;;7.38;2.70;;;25.70;94.80;;;;;;5073672;28;20510;-58
2022/01/16 11:57:29;;;;;;;8.60;3.00;;;25.70;94.70;;;;;;5072261;28;20478;-60
2022/01/16 12:00:15;;;;;;;7.07;2.88;;;25.70;94.70;;;;;;5072571;28;20035;-64
2022/01/16 12:02:52;;;;;;;9.02;3.10;;;25.70;94.70;;;;;;5073357;28;20128;-60
2022/01/16 12:05:26;;;;;;;7.30;3.15;;;25.60;94.70;;;;;;5074028;28;20024;-63
2022/01/16 12:08:00;;;;;;;8.15;3.22;;;25.70;94.80;;;;;;5073255;28;20135;-61
2022/01/16 12:10:43;;;;;;;8.13;3.40;;;25.70;94.80;;;;;;5071798;28;20120;-60
2022/01/16 12:13:50;;;;;;;7.03;2.97;;;25.60;94.70;;;;;;5072187;28;20027;-63
2022/01/16 12:16:36;;;;;;;4.15;2.50;;;25.70;94.70;;;;;;5073729;28;20017;-62
2022/01/16 12:19:36;;;;;;;6.13;2.97;;;25.70;94.70;;;;;;5073094;28;20107;-63
2022/01/16 12:22:08;;;;;;;5.40;2.58;;;25.70;94.70;;;;;;5073380;28;20041;-61
2022/01/16 12:24:42;;;;;;;6.60;2.63;;;25.70;94.70;;;;;;5073675;28;20020;-62
2022/01/16 12:27:30;;;;;;;5.68;2.83;;;25.60;94.70;;;;;;5072979;28;20033;-59
2022/01/16 12:30:15;;;;;;;8.05;3.22;;;25.70;94.60;;;;;;5073138;28;20016;-58
2022/01/16 12:32:53;;;;;;;6.82;3.03;;;25.60;94.60;;;;;;5073009;28;20032;-62
2022/01/16 12:35:42;;;;;;;7.55;2.35;;;25.60;94.60;;;;;;5073323;28;20025;-61
2022/01/16 12:38:17;;;;;;;6.88;2.70;;;25.70;94.60;;;;;;5072891;28;20035;-60
2022/01/16 12:40:51;;;;;;;5.47;3.13;;;25.70;94.70;;;;;;5072656;28;20028;-61
2022/01/16 12:44:01;;;;;;;4.63;2.60;;;25.70;94.80;;;;;;5072633;28;20139;-62
2022/01/16 12:46:12;;;;;;;5.70;2.50;;;25.60;94.70;;;;;;5067036;28;20124;-62
2022/01/16 12:48:41;;;;;;;6.13;3.08;;;25.60;94.80;;;;;;5073311;28;20391;-61
2022/01/16 12:51:09;;;;;;;5.00;2.50;;;25.60;94.70;;;;;;5072716;28;20472;-62
2022/01/16 12:53:41;;;;;;;7.65;2.97;;;25.60;94.80;;;;;;5072682;28;20029;-62
2022/01/16 12:56:30;;;;;;;;;;;25.60;94.70;;;;;;5072103;28;20072;-62
2022/01/16 12:59:19;;;;;;;5.93;2.47;;;25.60;94.70;;;;;;5072874;28;19908;-59
2022/01/16 13:02:01;;;;;;;7.18;2.60;;;25.60;94.70;;;;;;5072724;28;20060;-62
2022/01/16 13:04:36;;;;;;;6.03;2.63;;;25.60;94.80;;;;;;5072626;28;20024;-60
2022/01/16 13:07:17;;;;;;;6.15;2.60;;;25.60;94.80;;;;;;5072120;28;20066;-57
2022/01/16 13:09:46;;;;;;;7.63;3.10;;;25.60;94.70;;;;;;5072799;28;20019;-64
2022/01/16 13:12:14;;;;;;;6.40;2.60;;;25.60;94.80;;;;;;5072469;28;20028;-63
2022/01/16 13:14:43;;;;;;;5.05;2.75;;;25.60;94.70;;;;;;5072331;28;20031;-61
2022/01/16 13:17:12;;;;;;;5.07;2.35;;;25.60;94.80;;;;;;5072486;28;20031;-58
2022/01/16 13:19:53;;;;;;;8.63;3.08;;;25.60;94.80;;;;;;5072231;28;20030;-59
2022/01/16 13:22:25;;;;;;;4.55;2.05;;;25.60;94.80;;;;;;5071716;28;20105;-54
2022/01/16 13:25:04;;;;;;;5.47;2.22;;;25.60;94.80;;;;;;5072870;28;20407;-60
2022/01/16 13:27:37;;;;;;;8.95;3.13;;;25.60;94.80;;;;;;5072597;28;20036;-55
2022/01/16 13:30:13;;;;;;;5.47;2.65;;;25.60;94.80;;;;;;5072309;28;20116;-59
2022/01/16 13:32:44;;;;;;;6.05;2.67;;;25.50;94.80;;;;;;5072511;28;20027;-62
2022/01/16 13:35:25;;;;;;;3.60;2.20;;;25.60;94.80;;;;;;5072442;28;20017;-62
2022/01/16 13:38:03;;;;;;;5.30;2.50;;;25.60;94.80;;;;;;5071816;28;20028;-61
2022/01/16 13:40:31;;;;;;;5.07;2.60;;;25.60;94.80;;;;;;5072361;28;20029;-60
2022/01/16 13:43:14;;;;;;;8.63;3.20;;;25.50;94.90;;;;;;5071909;28;20066;-62
2022/01/16 13:45:46;;;;;;;8.30;3.25;;;25.60;94.70;;;;;;5071268;28;20520;-61
2022/01/16 13:48:20;;;;;;;5.97;2.60;;;25.50;94.70;;;;;;5071860;28;20479;-59
2022/01/16 13:51:00;;;;;;;5.35;2.40;;;25.60;94.70;;;;;;5072073;28;20035;-59